Time,TemperatureF,DewpointF,PressureIn,WindDirection,WindDirectionDegrees,WindSpeedMPH,WindSpeedGustMPH,Humidity,HourlyPrecipIn,Conditions,Clouds,dailyrainin,SoftwareType,DateUTC
2013-03-05 00:00:00,34.6,29.7,29.92,NW,324,7.0,12.0,82,0.00,OVC,,0.00,WeatherDisplay:10.37,2013-03-05 06:00:00,
2013-03-05 00:10:00,34.5,29.6,29.93,NW,321,9.0,13.0,82,0.00,OVC,,0.00,WeatherDisplay:10.37,2013-03-05 06:10:00,
2013-03-05 00:15:00,34.4,29.8,29.93,NW,319,8.0,10.0,83,0.00,OVC,,0.00,WeatherDisplay:10.37,2013-03-05 06:15:00,
2013-03-05 00:20:00,34.4,29.7,29.93,NW,321,8.0,12.0,83,0.00,OVC,,0.00,WeatherDisplay:10.37,2013-03-05 06:20:00,
2013-03-05 00:25:00,34.3,29.7,29.93,NW,321,9.0,15.0,83,0.00,OVC,,0.00,WeatherDisplay:10.37,2013-03-05 06:25:00,
2013-03-05 00:30:00,34.3,29.7,29.93,NW,317,8.0,12.0,83,0.00,OVC,,0.00,WeatherDisplay:10.37,2013-03-05 06:30:00,
2013-03-05 00:40:00,34.3,29.4,29.94,NW,319,9.0,13.0,82,0.00,OVC,,0.00,WeatherDisplay:10.37,2013-03-05 06:40:00,
2013-03-05 00:45:00,34.3,29.4,29.94,NW,316,8.0,13.0,82,0.00,OVC,,0.00,WeatherDisplay:10.37,2013-03-05 06:45:00,
2013-03-05 00:50:00,34.2,29.6,29.94,NW,313,7.0,12.0,83,0.00,OVC,,0.00,WeatherDisplay:10.37,2013-03-05 06:50:00,
2013-03-05 01:00:00,34.2,29.6,29.94,NW,323,10.0,14.0,83,0.00,OVC,,0.00,WeatherDisplay:10.37,2013-03-05 07:00:00,
2013-03-05 01:10:00,34.1,29.2,29.93,NW,325,12.0,17.0,82,0.00,OVC,,0.00,WeatherDisplay:10.37,2013-03-05 07:10:00,
2013-03-05 01:15:00,34.0,29.1,29.94,NW,323,12.0,15.0,82,0.00,OVC,,0.00,WeatherDisplay:10.37,2013-03-05 07:15:00,
2013-03-05 01:20:00,34.0,29.1,29.94,NW,321,10.0,15.0,82,0.00,OVC,,0.00,WeatherDisplay:10.37,2013-03-05 07:20:00,
2013-03-05 01:25:00,34.0,29.1,29.96,NW,314,10.0,17.0,82,0.00,OVC,,0.00,WeatherDisplay:10.37,2013-03-05 07:25:00,
2013-03-05 01:30:00,34.0,28.8,29.97,NW,309,10.0,17.0,81,0.00,OVC,,0.00,WeatherDisplay:10.37,2013-03-05 07:30:00,
2013-03-05 01:40:00,34.0,28.8,29.97,NW,320,12.0,14.0,81,0.00,OVC,,0.00,WeatherDisplay:10.37,2013-03-05 07:40:00,
2013-03-05 01:45:00,34.1,28.6,29.97,NW,322,12.0,18.0,80,0.00,OVC,,0.00,WeatherDisplay:10.37,2013-03-05 07:45:00,
2013-03-05 01:50:00,34.1,28.3,29.96,NW,321,12.0,20.0,79,0.00,OVC,,0.00,WeatherDisplay:10.37,2013-03-05 07:50:00,
2013-03-05 01:55:00,34.0,28.2,29.97,NW,322,13.0,20.0,79,0.00,OVC,,0.00,WeatherDisplay:10.37,2013-03-05 07:55:00,
2013-03-05 02:00:00,34.1,28.0,29.97,NW,322,16.0,23.0,78,0.00,OVC,,0.00,WeatherDisplay:10.37,2013-03-05 08:00:00,
2013-03-05 02:05:00,34.1,28.0,29.98,NW,319,15.0,22.0,78,0.00,OVC,,0.00,WeatherDisplay:10.37,2013-03-05 08:05:00,
2013-03-05 02:10:00,34.1,28.0,29.97,NW,323,16.0,23.0,78,0.00,OVC,,0.00,WeatherDisplay:10.37,2013-03-05 08:10:00,
2013-03-05 02:15:00,34.0,27.9,29.97,NW,323,15.0,20.0,78,0.00,OVC,,0.00,WeatherDisplay:10.37,2013-03-05 08:15:00,
2013-03-05 02:20:00,33.9,27.8,29.97,NW,320,14.0,23.0,78,0.00,OVC,,0.00,WeatherDisplay:10.37,2013-03-05 08:20:00,
2013-03-05 02:25:00,33.9,27.4,29.98,NW,322,13.0,22.0,77,0.00,OVC,,0.00,WeatherDisplay:10.37,2013-03-05 08:25:00,
2013-03-05 02:30:00,33.9,27.4,29.98,NW,322,12.0,20.0,77,0.00,OVC,,0.00,WeatherDisplay:10.37,2013-03-05 08:30:00,
2013-03-05 02:40:00,33.7,27.9,29.99,NW,312,10.0,15.0,79,0.00,OVC,,0.00,WeatherDisplay:10.37,2013-03-05 08:40:00,
2013-03-05 02:45:00,33.7,27.6,29.98,NW,317,10.0,18.0,78,0.00,OVC,,0.00,WeatherDisplay:10.37,2013-03-05 08:45:00,
2013-03-05 02:50:00,33.6,27.5,29.99,NW,321,9.0,16.0,78,0.00,OVC,,0.00,WeatherDisplay:10.37,2013-03-05 08:50:00,
2013-03-05 02:55:00,33.5,27.4,29.99,NW,316,10.0,14.0,78,0.00,OVC,,0.00,WeatherDisplay:10.37,2013-03-05 08:55:00,
2013-03-05 03:00:00,33.5,27.4,29.99,NW,309,12.0,18.0,78,0.00,OVC,,0.00,WeatherDisplay:10.37,2013-03-05 09:00:00,
2013-03-05 03:10:00,33.4,27.3,29.99,NW,307,9.0,16.0,78,0.00,OVC,,0.00,WeatherDisplay:10.37,2013-03-05 09:10:00,
2013-03-05 03:15:00,33.3,27.2,29.99,NW,309,10.0,15.0,78,0.00,OVC,,0.00,WeatherDisplay:10.37,2013-03-05 09:15:00,
2013-03-05 03:20:00,33.3,26.9,30.00,NW,304,12.0,17.0,77,0.00,OVC,,0.00,WeatherDisplay:10.37,2013-03-05 09:20:00,
2013-03-05 03:25:00,33.1,25.1,30.00,NW,304,12.0,15.0,72,0.00,OVC,,0.00,WeatherDisplay:10.37,2013-03-05 09:25:00,
2013-03-05 03:30:00,33.0,23.9,30.00,NW,305,14.0,20.0,69,0.00,OVC,,0.00,WeatherDisplay:10.37,2013-03-05 09:30:00,
2013-03-05 03:40:00,32.5,21.7,30.00,NW,314,12.0,21.0,64,0.00,OVC,,0.00,WeatherDisplay:10.37,2013-03-05 09:40:00,
2013-03-05 03:45:00,32.3,21.1,30.01,NW,308,14.0,25.0,63,0.00,OVC,,0.00,WeatherDisplay:10.37,2013-03-05 09:45:00,
2013-03-05 03:50:00,32.1,20.5,30.01,WNW,302,16.0,23.0,62,0.00,OVC,,0.00,WeatherDisplay:10.37,2013-03-05 09:50:00,
2013-03-05 03:55:00,31.9,19.2,30.01,NW,309,14.0,21.0,59,0.00,OVC,,0.00,WeatherDisplay:10.37,2013-03-05 09:55:00,
2013-03-05 04:00:00,31.6,18.1,30.01,NW,312,15.0,22.0,57,0.00,OVC,,0.00,WeatherDisplay:10.37,2013-03-05 10:00:00,
2013-03-05 04:10:00,31.1,16.8,30.02,NW,313,15.0,22.0,55,0.00,OVC,,0.00,WeatherDisplay:10.37,2013-03-05 10:10:00,
2013-03-05 04:15:00,30.9,17.4,30.02,NW,313,14.0,20.0,57,0.00,OVC,,0.00,WeatherDisplay:10.37,2013-03-05 10:15:00,
2013-03-05 04:20:00,30.7,16.4,30.02,NW,306,17.0,22.0,55,0.00,OVC,,0.00,WeatherDisplay:10.37,2013-03-05 10:20:00,
2013-03-05 04:25:00,30.5,16.2,30.03,NW,306,18.0,28.0,55,0.00,OVC,,0.00,WeatherDisplay:10.37,2013-03-05 10:25:00,
2013-03-05 04:30:00,30.1,16.3,30.04,NW,309,16.0,26.0,56,0.00,OVC,,0.00,WeatherDisplay:10.37,2013-03-05 10:30:00,
2013-03-05 04:40:00,29.6,15.8,30.05,NW,306,13.0,23.0,56,0.00,OVC,,0.00,WeatherDisplay:10.37,2013-03-05 10:40:00,
2013-03-05 04:45:00,29.3,16.3,30.05,NW,311,10.0,15.0,58,0.00,OVC,,0.00,WeatherDisplay:10.37,2013-03-05 10:45:00,
2013-03-05 04:50:00,29.2,16.2,30.05,NW,309,12.0,16.0,58,0.00,OVC,,0.00,WeatherDisplay:10.37,2013-03-05 10:50:00,
2013-03-05 04:55:00,29.0,16.4,30.06,NW,306,8.0,16.0,59,0.00,OVC,,0.00,WeatherDisplay:10.37,2013-03-05 10:55:00,
2013-03-05 05:00:00,29.1,16.5,30.06,NW,306,14.0,22.0,59,0.00,OVC,,0.00,WeatherDisplay:10.37,2013-03-05 11:00:00,
2013-03-05 05:10:00,28.8,16.3,30.06,NW,304,14.0,24.0,59,0.00,FEW,,0.00,WeatherDisplay:10.37,2013-03-05 11:10:00,
2013-03-05 05:15:00,28.6,15.7,30.06,WNW,301,15.0,22.0,58,0.00,FEW,,0.00,WeatherDisplay:10.37,2013-03-05 11:15:00,
2013-03-05 05:20:00,28.3,15.4,30.06,NW,305,14.0,17.0,58,0.00,FEW,,0.00,WeatherDisplay:10.37,2013-03-05 11:20:00,
2013-03-05 05:25:00,28.2,15.7,30.06,NW,307,15.0,21.0,59,0.00,FEW,,0.00,WeatherDisplay:10.37,2013-03-05 11:25:00,
2013-03-05 05:30:00,27.9,15.8,30.06,NW,305,14.0,20.0,60,0.00,FEW,,0.00,WeatherDisplay:10.37,2013-03-05 11:30:00,
2013-03-05 05:35:00,27.8,15.7,30.07,WNW,301,12.0,23.0,60,0.00,FEW,,0.00,WeatherDisplay:10.37,2013-03-05 11:35:00,
2013-03-05 05:40:00,27.6,15.9,30.07,WNW,299,14.0,23.0,61,0.00,FEW,,0.00,WeatherDisplay:10.37,2013-03-05 11:40:00,
2013-03-05 05:45:00,27.5,15.8,30.07,WNW,300,13.0,16.0,61,0.00,FEW,,0.00,WeatherDisplay:10.37,2013-03-05 11:45:00,
2013-03-05 05:50:00,27.3,16.0,30.07,WNW,301,13.0,15.0,62,0.00,FEW,,0.00,WeatherDisplay:10.37,2013-03-05 11:50:00,
2013-03-05 05:55:00,27.2,15.9,30.07,WNW,300,12.0,18.0,62,0.00,FEW,,0.00,WeatherDisplay:10.37,2013-03-05 11:55:00,
2013-03-05 06:00:00,27.1,15.8,30.07,WNW,303,15.0,24.0,62,0.00,FEW,,0.00,WeatherDisplay:10.37,2013-03-05 12:00:00,
2013-03-05 06:05:00,27.0,15.7,30.07,WNW,303,15.0,23.0,62,0.00,FEW,,0.00,WeatherDisplay:10.37,2013-03-05 12:05:00,
2013-03-05 06:10:00,26.7,15.8,30.07,WNW,303,13.0,17.0,63,0.00,FEW,,0.00,WeatherDisplay:10.37,2013-03-05 12:10:00,
2013-03-05 06:15:00,26.6,16.1,30.08,WNW,302,13.0,16.0,64,0.00,FEW,,0.00,WeatherDisplay:10.37,2013-03-05 12:15:00,
2013-03-05 06:20:00,26.5,16.0,30.08,WNW,297,14.0,21.0,64,0.00,FEW,,0.00,WeatherDisplay:10.37,2013-03-05 12:20:00,
2013-03-05 06:30:00,26.0,15.5,30.08,WNW,297,17.0,22.0,64,0.00,FEW,,0.00,WeatherDisplay:10.37,2013-03-05 12:30:00,
2013-03-05 06:40:00,25.9,14.6,30.08,WNW,300,15.0,25.0,62,0.00,FEW,,0.00,WeatherDisplay:10.37,2013-03-05 12:40:00,
2013-03-05 06:45:00,25.7,14.8,30.09,NW,305,12.0,20.0,63,0.00,FEW,,0.00,WeatherDisplay:10.37,2013-03-05 12:45:00,
2013-03-05 06:50:00,25.6,14.7,30.09,NW,309,12.0,20.0,63,0.00,FEW,,0.00,WeatherDisplay:10.37,2013-03-05 12:50:00,
2013-03-05 06:55:00,25.6,14.7,30.09,NW,313,12.0,20.0,63,0.00,FEW,,0.00,WeatherDisplay:10.37,2013-03-05 12:55:00,
2013-03-05 07:00:00,25.5,14.6,30.09,NW,311,14.0,21.0,63,0.00,FEW,,0.00,WeatherDisplay:10.37,2013-03-05 13:00:00,
2013-03-05 07:10:00,25.5,15.0,30.08,NW,313,14.0,22.0,64,0.00,CLR,,0.00,WeatherDisplay:10.37,2013-03-05 13:10:00,
2013-03-05 07:15:00,25.4,14.9,30.08,NW,308,13.0,17.0,64,0.00,CLR,,0.00,WeatherDisplay:10.37,2013-03-05 13:15:00,
2013-03-05 07:20:00,25.3,15.2,30.09,NW,304,10.0,16.0,65,0.00,CLR,,0.00,WeatherDisplay:10.37,2013-03-05 13:20:00,
2013-03-05 07:25:00,25.4,14.9,30.09,NW,307,13.0,21.0,64,0.00,CLR,,0.00,WeatherDisplay:10.37,2013-03-05 13:25:00,
2013-03-05 07:30:00,25.5,15.0,30.09,NW,307,12.0,20.0,64,0.00,CLR,,0.00,WeatherDisplay:10.37,2013-03-05 13:30:00,
2013-03-05 07:40:00,25.5,15.0,30.09,NW,306,14.0,22.0,64,0.00,CLR,,0.00,WeatherDisplay:10.37,2013-03-05 13:40:00,
2013-03-05 07:45:00,25.6,14.7,30.10,NW,308,16.0,23.0,63,0.00,CLR,,0.00,WeatherDisplay:10.37,2013-03-05 13:45:00,
2013-03-05 07:50:00,25.6,14.7,30.10,NW,305,13.0,20.0,63,0.00,CLR,,0.00,WeatherDisplay:10.37,2013-03-05 13:50:00,
2013-03-05 07:55:00,25.7,14.8,30.10,WNW,303,14.0,20.0,63,0.00,CLR,,0.00,WeatherDisplay:10.37,2013-03-05 13:55:00,
2013-03-05 08:00:00,25.7,15.6,30.10,WNW,300,13.0,20.0,65,0.00,CLR,,0.00,WeatherDisplay:10.37,2013-03-05 14:00:00,
2013-03-05 08:05:00,25.8,15.3,30.10,WNW,301,13.0,22.0,64,0.00,CLR,,0.00,WeatherDisplay:10.37,2013-03-05 14:05:00,
2013-03-05 08:10:00,25.8,14.9,30.10,NW,305,17.0,23.0,63,0.00,CLR,,0.00,WeatherDisplay:10.37,2013-03-05 14:10:00,
2013-03-05 08:15:00,26.0,14.7,30.10,NW,304,13.0,20.0,62,0.00,CLR,,0.00,WeatherDisplay:10.37,2013-03-05 14:15:00,
2013-03-05 08:20:00,26.0,14.8,30.11,WNW,303,14.0,27.0,62,0.00,CLR,,0.00,WeatherDisplay:10.37,2013-03-05 14:20:00,
2013-03-05 08:30:00,26.2,14.9,30.11,NW,305,17.0,22.0,62,0.00,CLR,,0.00,WeatherDisplay:10.37,2013-03-05 14:30:00,
2013-03-05 08:40:00,26.4,14.8,30.11,NW,306,15.0,30.0,61,0.00,CLR,,0.00,WeatherDisplay:10.37,2013-03-05 14:40:00,
2013-03-05 08:45:00,26.5,14.9,30.11,NW,307,17.0,24.0,61,0.00,CLR,,0.00,WeatherDisplay:10.37,2013-03-05 14:45:00,
2013-03-05 08:50:00,26.7,15.0,30.11,NW,311,13.0,22.0,61,0.00,CLR,,0.00,WeatherDisplay:10.37,2013-03-05 14:50:00,
2013-03-05 08:55:00,26.8,14.8,30.12,NW,310,16.0,22.0,60,0.00,CLR,,0.00,WeatherDisplay:10.37,2013-03-05 14:55:00,
2013-03-05 09:00:00,27.0,15.4,30.12,WNW,303,12.0,26.0,61,0.00,CLR,,0.00,WeatherDisplay:10.37,2013-03-05 15:00:00,
2013-03-05 09:10:00,27.4,16.1,30.12,NW,310,15.0,20.0,62,0.00,CLR,,0.00,WeatherDisplay:10.37,2013-03-05 15:10:00,
2013-03-05 09:15:00,27.5,15.8,30.12,NW,310,16.0,24.0,61,0.00,CLR,,0.00,WeatherDisplay:10.37,2013-03-05 15:15:00,
2013-03-05 09:20:00,27.6,15.9,30.12,NW,308,16.0,23.0,61,0.00,CLR,,0.00,WeatherDisplay:10.37,2013-03-05 15:20:00,
2013-03-05 09:30:00,28.0,16.3,30.12,NW,315,16.0,27.0,61,0.00,CLR,,0.00,WeatherDisplay:10.37,2013-03-05 15:30:00,
2013-03-05 09:40:00,27.7,16.3,30.12,WNW,301,17.0,27.0,62,0.00,CLR,,0.00,WeatherDisplay:10.37,2013-03-05 15:40:00,
2013-03-05 09:45:00,27.8,16.8,30.12,NW,307,10.0,25.0,63,0.00,CLR,,0.00,WeatherDisplay:10.37,2013-03-05 15:45:00,
2013-03-05 09:50:00,28.0,16.6,30.12,NW,309,15.0,25.0,62,0.00,CLR,,0.00,WeatherDisplay:10.37,2013-03-05 15:50:00,
2013-03-05 09:55:00,27.9,16.6,30.12,NW,308,20.0,30.0,62,0.00,CLR,,0.00,WeatherDisplay:10.37,2013-03-05 15:55:00,
2013-03-05 10:00:00,28.0,16.6,30.13,NW,310,20.0,26.0,62,0.00,CLR,,0.00,WeatherDisplay:10.37,2013-03-05 16:00:00,
2013-03-05 10:10:00,28.2,17.2,30.13,NW,308,12.0,18.0,63,0.00,BKN,,0.00,WeatherDisplay:10.37,2013-03-05 16:10:00,
2013-03-05 10:15:00,28.5,17.5,30.13,NW,305,9.0,21.0,63,0.00,BKN,,0.00,WeatherDisplay:10.37,2013-03-05 16:15:00,
2013-03-05 10:20:00,28.5,16.7,30.13,WNW,302,17.0,25.0,61,0.00,BKN,,0.00,WeatherDisplay:10.37,2013-03-05 16:20:00,
2013-03-05 10:25:00,28.6,16.9,30.13,WNW,301,22.0,27.0,61,0.00,BKN,,0.00,WeatherDisplay:10.37,2013-03-05 16:25:00,
2013-03-05 10:35:00,28.9,17.5,30.13,WNW,301,20.0,27.0,62,0.00,BKN,,0.00,WeatherDisplay:10.37,2013-03-05 16:35:00,
2013-03-05 10:40:00,29.0,17.6,30.13,WNW,302,16.0,25.0,62,0.00,BKN,,0.00,WeatherDisplay:10.37,2013-03-05 16:40:00,
2013-03-05 10:45:00,29.4,17.9,30.14,NW,304,14.0,21.0,62,0.00,BKN,,0.00,WeatherDisplay:10.37,2013-03-05 16:45:00,
2013-03-05 10:50:00,29.4,18.0,30.14,WNW,303,14.0,23.0,62,0.00,BKN,,0.00,WeatherDisplay:10.37,2013-03-05 16:50:00,
2013-03-05 10:55:00,29.5,18.1,30.14,NW,305,16.0,22.0,62,0.00,BKN,,0.00,WeatherDisplay:10.37,2013-03-05 16:55:00,
2013-03-05 11:00:00,29.8,18.8,30.14,WNW,303,15.0,22.0,63,0.00,BKN,,0.00,WeatherDisplay:10.37,2013-03-05 17:00:00,
2013-03-05 11:10:00,30.1,18.6,30.14,WNW,300,18.0,30.0,62,0.00,OVC,,0.00,WeatherDisplay:10.37,2013-03-05 17:10:00,
2013-03-05 11:15:00,30.2,18.7,30.14,NW,304,16.0,25.0,62,0.00,OVC,,0.00,WeatherDisplay:10.37,2013-03-05 17:15:00,
2013-03-05 11:20:00,30.4,18.9,30.14,NW,307,16.0,25.0,62,0.00,OVC,,0.00,WeatherDisplay:10.37,2013-03-05 17:20:00,
2013-03-05 11:25:00,30.4,18.9,30.15,WNW,298,16.0,24.0,62,0.00,OVC,,0.00,WeatherDisplay:10.37,2013-03-05 17:25:00,
2013-03-05 11:30:00,30.3,18.8,30.15,WNW,299,16.0,24.0,62,0.00,OVC,,0.00,WeatherDisplay:10.37,2013-03-05 17:30:00,
2013-03-05 11:40:00,30.7,19.2,30.15,WNW,300,16.0,20.0,62,0.00,OVC,,0.00,WeatherDisplay:10.37,2013-03-05 17:40:00,
2013-03-05 11:45:00,30.9,19.4,30.15,WNW,300,12.0,20.0,62,0.00,OVC,,0.00,WeatherDisplay:10.37,2013-03-05 17:45:00,
2013-03-05 11:50:00,30.7,19.2,30.14,WNW,298,13.0,22.0,62,0.00,OVC,,0.00,WeatherDisplay:10.37,2013-03-05 17:50:00,
2013-03-05 11:55:00,31.0,19.1,30.14,WNW,301,17.0,24.0,61,0.00,OVC,,0.00,WeatherDisplay:10.37,2013-03-05 17:55:00,
2013-03-05 12:00:00,31.3,19.4,30.14,WNW,294,13.0,21.0,61,0.00,OVC,,0.00,WeatherDisplay:10.37,2013-03-05 18:00:00,
2013-03-05 12:10:00,31.8,19.9,30.14,WNW,303,14.0,22.0,61,0.00,BKN,,0.00,WeatherDisplay:10.37,2013-03-05 18:10:00,
2013-03-05 12:20:00,32.1,19.8,30.14,WNW,296,14.0,22.0,60,0.00,BKN,,0.00,WeatherDisplay:10.37,2013-03-05 18:20:00,
2013-03-05 12:25:00,32.5,20.1,30.14,WNW,292,17.0,26.0,60,0.00,BKN,,0.00,WeatherDisplay:10.37,2013-03-05 18:25:00,
2013-03-05 12:30:00,32.7,20.7,30.14,WNW,296,15.0,21.0,61,0.00,BKN,,0.00,WeatherDisplay:10.37,2013-03-05 18:30:00,
2013-03-05 12:35:00,32.8,20.8,30.14,WNW,298,15.0,21.0,61,0.00,BKN,,0.00,WeatherDisplay:10.37,2013-03-05 18:35:00,
2013-03-05 12:40:00,33.3,20.1,30.14,NW,304,17.0,24.0,58,0.00,BKN,,0.00,WeatherDisplay:10.37,2013-03-05 18:40:00,
2013-03-05 12:45:00,33.4,19.8,30.15,NW,311,18.0,28.0,57,0.00,BKN,,0.00,WeatherDisplay:10.37,2013-03-05 18:45:00,
2013-03-05 12:50:00,33.1,20.0,30.15,NW,308,16.0,22.0,58,0.00,BKN,,0.00,WeatherDisplay:10.37,2013-03-05 18:50:00,
2013-03-05 12:55:00,33.0,19.0,30.15,NW,308,20.0,28.0,56,0.00,BKN,,0.00,WeatherDisplay:10.37,2013-03-05 18:55:00,
2013-03-05 13:00:00,32.8,20.0,30.15,NW,304,17.0,24.0,59,0.00,BKN,,0.00,WeatherDisplay:10.37,2013-03-05 19:00:00,
2013-03-05 13:10:00,32.4,18.8,30.15,NW,307,20.0,31.0,57,0.00,BKN,,0.00,WeatherDisplay:10.37,2013-03-05 19:10:00,
2013-03-05 13:20:00,33.0,19.8,30.15,WNW,298,18.0,23.0,58,0.00,BKN,,0.00,WeatherDisplay:10.37,2013-03-05 19:20:00,
2013-03-05 13:25:00,32.9,19.3,30.15,WNW,299,17.0,25.0,57,0.00,BKN,,0.00,WeatherDisplay:10.37,2013-03-05 19:25:00,
2013-03-05 13:30:00,32.8,19.6,30.15,WNW,299,16.0,25.0,58,0.00,BKN,,0.00,WeatherDisplay:10.37,2013-03-05 19:30:00,
2013-03-05 13:40:00,32.5,19.7,30.16,WNW,302,14.0,24.0,59,0.00,BKN,,0.00,WeatherDisplay:10.37,2013-03-05 19:40:00,
2013-03-05 13:50:00,33.3,20.5,30.16,WNW,300,14.0,24.0,59,0.00,BKN,,0.00,WeatherDisplay:10.37,2013-03-05 19:50:00,
2013-03-05 13:55:00,33.0,19.8,30.16,WNW,299,16.0,22.0,58,0.00,BKN,,0.00,WeatherDisplay:10.37,2013-03-05 19:55:00,
2013-03-05 14:00:00,32.9,19.8,30.16,WNW,298,16.0,27.0,58,0.00,BKN,,0.00,WeatherDisplay:10.37,2013-03-05 20:00:00,
2013-03-05 14:10:00,32.8,19.3,30.16,WNW,298,17.0,24.0,57,0.00,BKN,,0.00,WeatherDisplay:10.37,2013-03-05 20:10:00,
2013-03-05 14:15:00,32.9,19.7,30.17,WNW,301,15.0,24.0,58,0.00,BKN,,0.00,WeatherDisplay:10.37,2013-03-05 20:15:00,
2013-03-05 14:20:00,33.0,19.8,30.17,NW,306,16.0,23.0,58,0.00,BKN,,0.00,WeatherDisplay:10.37,2013-03-05 20:20:00,
2013-03-05 14:25:00,32.9,19.7,30.17,NW,304,16.0,24.0,58,0.00,BKN,,0.00,WeatherDisplay:10.37,2013-03-05 20:25:00,
2013-03-05 14:30:00,32.7,19.5,30.17,WNW,302,13.0,24.0,58,0.00,BKN,,0.00,WeatherDisplay:10.37,2013-03-05 20:30:00,
2013-03-05 14:40:00,32.9,18.9,30.17,NW,307,17.0,27.0,56,0.00,BKN,,0.00,WeatherDisplay:10.37,2013-03-05 20:40:00,
2013-03-05 14:50:00,33.0,19.0,30.17,NW,313,17.0,25.0,56,0.00,BKN,,0.00,WeatherDisplay:10.37,2013-03-05 20:50:00,
2013-03-05 14:55:00,32.9,19.7,30.17,NW,310,15.0,26.0,58,0.00,BKN,,0.00,WeatherDisplay:10.37,2013-03-05 20:55:00,
2013-03-05 15:00:00,32.9,19.3,30.17,NW,311,16.0,22.0,57,0.00,BKN,,0.00,WeatherDisplay:10.37,2013-03-05 21:00:00,
2013-03-05 15:10:00,32.8,19.6,30.18,WNW,301,18.0,26.0,58,0.00,SCT,,0.00,WeatherDisplay:10.37,2013-03-05 21:10:00,
2013-03-05 15:20:00,32.7,19.5,30.18,NW,308,16.0,28.0,58,0.00,SCT,,0.00,WeatherDisplay:10.37,2013-03-05 21:20:00,
2013-03-05 15:25:00,32.5,19.3,30.18,NW,310,15.0,29.0,58,0.00,SCT,,0.00,WeatherDisplay:10.37,2013-03-05 21:25:00,
2013-03-05 15:30:00,32.4,19.3,30.19,NW,312,17.0,26.0,58,0.00,SCT,,0.00,WeatherDisplay:10.37,2013-03-05 21:30:00,
2013-03-05 15:35:00,32.5,18.9,30.19,NW,313,16.0,25.0,57,0.00,SCT,,0.00,WeatherDisplay:10.37,2013-03-05 21:35:00,
2013-03-05 15:40:00,32.7,19.5,30.19,NW,313,14.0,25.0,58,0.00,SCT,,0.00,WeatherDisplay:10.37,2013-03-05 21:40:00,
2013-03-05 15:45:00,32.5,19.3,30.19,NW,308,16.0,28.0,58,0.00,SCT,,0.00,WeatherDisplay:10.37,2013-03-05 21:45:00,
2013-03-05 15:50:00,32.5,19.3,30.20,NW,313,16.0,26.0,58,0.00,SCT,,0.00,WeatherDisplay:10.37,2013-03-05 21:50:00,
2013-03-05 15:55:00,32.4,18.8,30.20,NW,312,17.0,24.0,57,0.00,SCT,,0.00,WeatherDisplay:10.37,2013-03-05 21:55:00,
2013-03-05 16:00:00,32.4,19.3,30.20,NW,321,16.0,20.0,58,0.00,SCT,,0.00,WeatherDisplay:10.37,2013-03-05 22:00:00,
2013-03-05 16:05:00,32.5,19.7,30.20,NW,317,13.0,18.0,59,0.00,SCT,,0.00,WeatherDisplay:10.37,2013-03-05 22:05:00,
2013-03-05 16:15:00,32.5,18.9,30.20,NW,315,14.0,23.0,57,0.00,SCT,,0.00,WeatherDisplay:10.37,2013-03-05 22:15:00,
2013-03-05 16:20:00,32.6,19.4,30.20,NW,317,14.0,20.0,58,0.00,SCT,,0.00,WeatherDisplay:10.37,2013-03-05 22:20:00,
2013-03-05 16:25:00,32.6,19.0,30.20,NW,319,14.0,25.0,57,0.00,SCT,,0.00,WeatherDisplay:10.37,2013-03-05 22:25:00,
2013-03-05 16:30:00,32.5,18.9,30.20,NW,315,13.0,20.0,57,0.00,SCT,,0.00,WeatherDisplay:10.37,2013-03-05 22:30:00,
2013-03-05 16:40:00,32.8,19.6,30.21,NNW,327,13.0,20.0,58,0.00,SCT,,0.00,WeatherDisplay:10.37,2013-03-05 22:40:00,
2013-03-05 16:50:00,32.8,18.8,30.21,NW,312,18.0,27.0,56,0.00,SCT,,0.00,WeatherDisplay:10.37,2013-03-05 22:50:00,
2013-03-05 17:00:00,32.7,18.7,30.21,NW,314,15.0,24.0,56,0.00,SCT,,0.00,WeatherDisplay:10.37,2013-03-05 23:00:00,
2013-03-05 17:10:00,32.6,19.0,30.21,NW,315,14.0,24.0,57,0.00,FEW,,0.00,WeatherDisplay:10.37,2013-03-05 23:10:00,
2013-03-05 17:20:00,32.6,19.0,30.21,NW,321,15.0,25.0,57,0.00,FEW,,0.00,WeatherDisplay:10.37,2013-03-05 23:20:00,
2013-03-05 17:25:00,32.5,18.9,30.21,NW,321,15.0,21.0,57,0.00,FEW,,0.00,WeatherDisplay:10.37,2013-03-05 23:25:00,
2013-03-05 17:30:00,32.6,19.0,30.22,NW,322,16.0,21.0,57,0.00,FEW,,0.00,WeatherDisplay:10.37,2013-03-05 23:30:00,
2013-03-05 17:40:00,32.3,18.7,30.22,NW,314,13.0,20.0,57,0.00,FEW,,0.00,WeatherDisplay:10.37,2013-03-05 23:40:00,
2013-03-05 17:45:00,32.2,19.1,30.22,NW,319,12.0,17.0,58,0.00,FEW,,0.00,WeatherDisplay:10.37,2013-03-05 23:45:00,
2013-03-05 17:50:00,32.1,19.0,30.22,NW,323,13.0,16.0,58,0.00,FEW,,0.00,WeatherDisplay:10.37,2013-03-05 23:50:00,
2013-03-05 18:00:00,31.9,19.2,30.22,NW,322,10.0,15.0,59,0.00,FEW,,0.00,WeatherDisplay:10.37,2013-03-06 00:00:00,
2013-03-05 18:10:00,31.6,18.5,30.23,NW,324,10.0,17.0,58,0.00,CLR,,0.00,WeatherDisplay:10.37,2013-03-06 00:10:00,
2013-03-05 18:15:00,31.4,18.7,30.23,NW,322,12.0,17.0,59,0.00,CLR,,0.00,WeatherDisplay:10.37,2013-03-06 00:15:00,
2013-03-05 18:20:00,31.3,17.8,30.23,NW,322,14.0,18.0,57,0.00,CLR,,0.00,WeatherDisplay:10.37,2013-03-06 00:20:00,
2013-03-05 18:25:00,31.3,17.8,30.23,NW,321,10.0,20.0,57,0.00,CLR,,0.00,WeatherDisplay:10.37,2013-03-06 00:25:00,
2013-03-05 18:30:00,31.2,18.1,30.23,NW,320,12.0,20.0,58,0.00,CLR,,0.00,WeatherDisplay:10.37,2013-03-06 00:30:00,
2013-03-05 18:40:00,30.9,17.9,30.24,NW,322,9.0,15.0,58,0.00,CLR,,0.00,WeatherDisplay:10.37,2013-03-06 00:40:00,
2013-03-05 18:45:00,30.9,17.8,30.25,NW,319,12.0,23.0,58,0.00,CLR,,0.00,WeatherDisplay:10.37,2013-03-06 00:45:00,
2013-03-05 18:50:00,30.8,17.7,30.25,NW,316,12.0,17.0,58,0.00,CLR,,0.00,WeatherDisplay:10.37,2013-03-06 00:50:00,
2013-03-05 18:55:00,30.8,17.7,30.25,NW,318,9.0,15.0,58,0.00,CLR,,0.00,WeatherDisplay:10.37,2013-03-06 00:55:00,
2013-03-05 19:00:00,30.6,18.0,30.26,NW,316,9.0,18.0,59,0.00,CLR,,0.00,WeatherDisplay:10.37,2013-03-06 01:00:00,
2013-03-05 19:10:00,30.5,17.5,30.26,NW,319,14.0,18.0,58,0.00,CLR,,0.00,WeatherDisplay:10.37,2013-03-06 01:10:00,
2013-03-05 19:15:00,30.5,17.5,30.25,NW,322,12.0,18.0,58,0.00,CLR,,0.00,WeatherDisplay:10.37,2013-03-06 01:15:00,
2013-03-05 19:20:00,30.4,17.4,30.25,NW,325,10.0,20.0,58,0.00,CLR,,0.00,WeatherDisplay:10.37,2013-03-06 01:20:00,
2013-03-05 19:30:00,30.1,17.5,30.26,NW,318,12.0,16.0,59,0.00,CLR,,0.00,WeatherDisplay:10.37,2013-03-06 01:30:00,
2013-03-05 19:40:00,30.1,17.4,30.25,NW,320,12.0,14.0,59,0.00,CLR,,0.00,WeatherDisplay:10.37,2013-03-06 01:40:00,
2013-03-05 19:45:00,29.8,17.6,30.25,NW,320,9.0,15.0,60,0.00,CLR,,0.00,WeatherDisplay:10.37,2013-03-06 01:45:00,
2013-03-05 19:50:00,29.7,17.9,30.25,NW,322,10.0,15.0,61,0.00,CLR,,0.00,WeatherDisplay:10.37,2013-03-06 01:50:00,
2013-03-05 19:55:00,29.7,17.9,30.26,NW,320,13.0,20.0,61,0.00,CLR,,0.00,WeatherDisplay:10.37,2013-03-06 01:55:00,
2013-03-05 20:00:00,29.8,18.0,30.26,NW,326,13.0,18.0,61,0.00,CLR,,0.00,WeatherDisplay:10.37,2013-03-06 02:00:00,
2013-03-05 20:10:00,29.5,18.1,30.27,NNW,332,14.0,20.0,62,0.00,CLR,,0.00,WeatherDisplay:10.37,2013-03-06 02:10:00,
2013-03-05 20:15:00,29.2,18.2,30.27,NNW,330,12.0,17.0,63,0.00,CLR,,0.00,WeatherDisplay:10.37,2013-03-06 02:15:00,
2013-03-05 20:20:00,29.1,18.1,30.27,NNW,332,13.0,16.0,63,0.00,CLR,,0.00,WeatherDisplay:10.37,2013-03-06 02:20:00,
2013-03-05 20:30:00,29.0,17.6,30.27,NW,326,13.0,18.0,62,0.00,CLR,,0.00,WeatherDisplay:10.37,2013-03-06 02:30:00,
2013-03-05 20:40:00,28.6,17.6,30.27,NNW,327,12.0,16.0,63,0.00,CLR,,0.00,WeatherDisplay:10.37,2013-03-06 02:40:00,
2013-03-05 20:45:00,28.4,17.7,30.27,NW,326,12.0,15.0,64,0.00,CLR,,0.00,WeatherDisplay:10.37,2013-03-06 02:45:00,
2013-03-05 20:50:00,28.2,17.6,30.28,NW,324,10.0,13.0,64,0.00,CLR,,0.00,WeatherDisplay:10.37,2013-03-06 02:50:00,
2013-03-05 20:55:00,28.1,17.8,30.28,NW,324,10.0,14.0,65,0.00,CLR,,0.00,WeatherDisplay:10.37,2013-03-06 02:55:00,
2013-03-05 21:00:00,27.9,17.6,30.29,NW,323,9.0,13.0,65,0.00,CLR,,0.00,WeatherDisplay:10.37,2013-03-06 03:00:00,
2013-03-05 21:10:00,27.6,17.7,30.29,NNW,328,10.0,14.0,66,0.00,CLR,,0.00,WeatherDisplay:10.37,2013-03-06 03:10:00,
2013-03-05 21:15:00,27.5,17.6,30.30,NNW,329,9.0,13.0,66,0.00,CLR,,0.00,WeatherDisplay:10.37,2013-03-06 03:15:00,
2013-03-05 21:20:00,27.5,17.6,30.30,NNW,328,10.0,14.0,66,0.00,CLR,,0.00,WeatherDisplay:10.37,2013-03-06 03:20:00,
2013-03-05 21:25:00,27.6,17.7,30.30,NNW,328,12.0,16.0,66,0.00,CLR,,0.00,WeatherDisplay:10.37,2013-03-06 03:25:00,
2013-03-05 21:30:00,27.4,17.9,30.30,NNW,328,9.0,15.0,67,0.00,CLR,,0.00,WeatherDisplay:10.37,2013-03-06 03:30:00,
2013-03-05 21:40:00,27.1,17.6,30.30,NNW,327,9.0,14.0,67,0.00,CLR,,0.00,WeatherDisplay:10.37,2013-03-06 03:40:00,
2013-03-05 21:45:00,27.0,17.8,30.30,NW,326,10.0,15.0,68,0.00,CLR,,0.00,WeatherDisplay:10.37,2013-03-06 03:45:00,
2013-03-05 21:50:00,27.0,17.8,30.31,NNW,331,12.0,16.0,68,0.00,CLR,,0.00,WeatherDisplay:10.37,2013-03-06 03:50:00,
2013-03-05 21:55:00,26.7,17.9,30.31,NNW,332,10.0,14.0,69,0.00,CLR,,0.00,WeatherDisplay:10.37,2013-03-06 03:55:00,
2013-03-05 22:00:00,26.5,17.7,30.31,NNW,330,9.0,14.0,69,0.00,CLR,,0.00,WeatherDisplay:10.37,2013-03-06 04:00:00,
2013-03-05 22:05:00,26.4,17.9,30.31,NNW,332,12.0,15.0,70,0.00,CLR,,0.00,WeatherDisplay:10.37,2013-03-06 04:05:00,
2013-03-05 22:10:00,26.5,18.0,30.31,NNW,332,14.0,16.0,70,0.00,CLR,,0.00,WeatherDisplay:10.37,2013-03-06 04:10:00,
2013-03-05 22:15:00,26.2,17.8,30.31,NNW,330,13.0,16.0,70,0.00,CLR,,0.00,WeatherDisplay:10.37,2013-03-06 04:15:00,
2013-03-05 22:25:00,25.9,17.8,30.32,NNW,331,9.0,14.0,71,0.00,CLR,,0.00,WeatherDisplay:10.37,2013-03-06 04:25:00,
2013-03-05 22:30:00,25.9,17.8,30.32,NNW,330,12.0,16.0,71,0.00,CLR,,0.00,WeatherDisplay:10.37,2013-03-06 04:30:00,
2013-03-05 22:40:00,25.7,17.6,30.32,NNW,328,13.0,20.0,71,0.00,CLR,,0.00,WeatherDisplay:10.37,2013-03-06 04:40:00,
2013-03-05 22:50:00,25.4,17.3,30.32,NNW,328,12.0,18.0,71,0.00,CLR,,0.00,WeatherDisplay:10.37,2013-03-06 04:50:00,
2013-03-05 22:55:00,25.3,17.2,30.32,NNW,327,10.0,20.0,71,0.00,CLR,,0.00,WeatherDisplay:10.37,2013-03-06 04:55:00,
2013-03-05 23:00:00,25.3,17.2,30.32,NNW,330,13.0,20.0,71,0.00,CLR,,0.00,WeatherDisplay:10.37,2013-03-06 05:00:00,
2013-03-05 23:05:00,25.2,17.1,30.32,NNW,332,13.0,16.0,71,0.00,CLR,,0.00,WeatherDisplay:10.37,2013-03-06 05:05:00,
2013-03-05 23:10:00,25.2,17.1,30.33,NNW,327,13.0,20.0,71,0.00,CLR,,0.00,WeatherDisplay:10.37,2013-03-06 05:10:00,
2013-03-05 23:20:00,24.8,17.0,30.33,NNW,330,8.0,14.0,72,0.00,CLR,,0.00,WeatherDisplay:10.37,2013-03-06 05:20:00,
2013-03-05 23:25:00,24.6,16.9,30.33,NNW,334,10.0,14.0,72,0.00,CLR,,0.00,WeatherDisplay:10.37,2013-03-06 05:25:00,
2013-03-05 23:30:00,24.6,16.9,30.33,NNW,334,9.0,14.0,72,0.00,CLR,,0.00,WeatherDisplay:10.37,2013-03-06 05:30:00,
2013-03-05 23:40:00,24.4,16.9,30.33,NW,326,8.0,13.0,73,0.00,CLR,,0.00,WeatherDisplay:10.37,2013-03-06 05:40:00,
2013-03-05 23:45:00,24.2,16.8,30.33,NNW,330,8.0,13.0,73,0.00,CLR,,0.00,WeatherDisplay:10.37,2013-03-06 05:45:00,
2013-03-05 23:50:00,24.1,17.0,30.33,NW,325,9.0,12.0,74,0.00,CLR,,0.00,WeatherDisplay:10.37,2013-03-06 05:50:00,
2013-03-05 23:55:00,24.0,16.9,30.34,NNW,328,8.0,12.0,74,0.00,CLR,,0.00,WeatherDisplay:10.37,2013-03-06 05:55:00,